Time;durP1;ratioP1;P1;durP2;ratioP2;P2;SDS_P1;SDS_P2;PMS_P1;PMS_P2;Temp;Humidity;BMP_temperature;BMP_pressure;BME280_temperature;BME280_humidity;BME280_pressure;Samples;Min_cycle;Max_cycle;Signal;HPM_P1;HPM_P2
2022/04/07 00:00:48;;;;;;;5.50;5.00;;;14.80;99.90;;;;;;5072400;28;20241;-50
2022/04/07 00:03:15;;;;;;;5.60;5.10;;;13.10;99.90;;;;;;5072162;28;20177;-53
2022/04/07 00:05:40;;;;;;;5.57;5.07;;;13.20;99.90;;;;;;5072467;28;20186;-55
2022/04/07 00:08:06;;;;;;;5.20;4.73;;;13.10;99.90;;;;;;5072274;28;20549;-50
2022/04/07 00:10:33;;;;;;;5.10;4.60;;;13.10;99.90;;;;;;5071690;28;20928;-51
2022/04/07 00:12:59;;;;;;;5.17;4.70;;;13.00;99.90;;;;;;5072242;28;20513;-53
2022/04/07 00:15:24;;;;;;;4.90;4.50;;;13.00;99.90;;;;;;5072335;28;20235;-51
2022/04/07 00:17:50;;;;;;;5.10;4.10;;;13.00;99.90;;;;;;5072117;28;20198;-50
2022/04/07 00:20:16;;;;;;;5.97;4.30;;;13.10;99.90;;;;;;5072133;28;20624;-50
2022/04/07 00:22:42;;;;;;;4.97;4.57;;;13.10;99.90;;;;;;5071662;28;20197;-50
2022/04/07 00:25:08;;;;;;;5.30;4.80;;;13.10;99.90;;;;;;5072184;28;20174;-50
2022/04/07 00:27:33;;;;;;;5.40;4.90;;;13.00;99.90;;;;;;5072158;28;20202;-50
2022/04/07 00:29:59;;;;;;;6.27;5.67;;;13.00;99.90;;;;;;5072189;28;20656;-50
2022/04/07 00:32:24;;;;;;;6.10;5.50;;;12.90;99.90;;;;;;5071477;28;20170;-50
2022/04/07 00:34:54;;;;;;;5.73;5.13;;;12.80;99.90;;;;;;5071201;28;20868;-52
2022/04/07 00:37:22;;;;;;;6.63;5.33;;;12.70;99.90;;;;;;5071697;28;20675;-50
2022/04/07 00:39:49;;;;;;;5.67;5.17;;;12.70;99.90;;;;;;5071867;28;20585;-50
2022/04/07 00:42:15;;;;;;;4.93;4.53;;;12.70;99.90;;;;;;5071559;28;20198;-52
2022/04/07 00:44:40;;;;;;;7.23;5.33;;;12.70;99.90;;;;;;5071580;28;20644;-51
2022/04/07 00:47:07;;;;;;;5.83;4.83;;;12.70;99.90;;;;;;5071901;28;20187;-51
2022/04/07 00:49:33;;;;;;;5.43;4.90;;;12.70;99.90;;;;;;5070837;28;20635;-52
2022/04/07 00:51:59;;;;;;;5.17;4.77;;;12.80;99.90;;;;;;5071571;28;20177;-50
2022/04/07 00:54:26;;;;;;;5.40;4.90;;;12.70;99.90;;;;;;5071498;28;20175;-51
2022/04/07 00:56:54;;;;;;;6.73;4.70;;;12.60;99.90;;;;;;5085103;22;20245;-53
2022/04/07 00:59:21;;;;;;;5.03;4.53;;;12.70;99.90;;;;;;5045284;28;20282;-50
2022/04/07 01:01:47;;;;;;;5.57;4.97;;;12.70;99.90;;;;;;5050125;28;20254;-48
2022/04/07 01:04:12;;;;;;;5.20;4.70;;;12.60;99.90;;;;;;5049757;28;20171;-50
2022/04/07 01:06:43;;;;;;;5.27;4.67;;;12.50;99.90;;;;;;5050726;28;20179;-50
2022/04/07 01:09:10;;;;;;;5.30;4.80;;;12.50;99.90;;;;;;5051175;28;20666;-50
2022/04/07 01:11:38;;;;;;;5.67;4.53;;;12.50;99.90;;;;;;5051319;28;20178;-47
2022/04/07 01:14:04;;;;;;;5.90;5.30;;;12.40;99.90;;;;;;5051228;28;20224;-52
2022/04/07 01:16:30;;;;;;;5.57;5.07;;;12.50;99.90;;;;;;5032624;28;20179;-52
2022/04/07 01:18:59;;;;;;;5.47;4.97;;;12.90;99.90;;;;;;5031462;28;20206;-50
2022/04/07 01:21:25;;;;;;;5.20;4.70;;;14.80;99.90;;;;;;5031224;28;20202;-50
2022/04/07 01:23:55;;;;;;;6.53;4.70;;;12.60;99.90;;;;;;5033391;28;20267;-52
2022/04/07 01:26:22;;;;;;;4.33;3.93;;;12.50;99.90;;;;;;5035589;28;20172;-52
2022/04/07 01:28:48;;;;;;;5.50;5.00;;;12.40;99.90;;;;;;5050628;28;20202;-50
2022/04/07 01:31:14;;;;;;;5.10;4.57;;;12.20;99.90;;;;;;5035315;28;20176;-51
2022/04/07 01:33:41;;;;;;;5.03;4.47;;;12.20;99.90;;;;;;5034360;28;20259;-51
2022/04/07 01:36:07;;;;;;;4.40;4.00;;;12.20;99.90;;;;;;5035358;28;20663;-51
2022/04/07 01:38:32;;;;;;;5.37;3.80;;;12.30;99.90;;;;;;5033828;28;20219;-54
2022/04/07 01:40:58;;;;;;;4.60;4.20;;;12.30;99.90;;;;;;5035289;28;20543;-50
2022/04/07 01:43:24;;;;;;;4.33;3.93;;;12.20;99.90;;;;;;5034883;28;20696;-50
2022/04/07 01:45:51;;;;;;;3.83;3.53;;;12.10;99.90;;;;;;5033914;28;20186;-50
2022/04/07 01:48:18;;;;;;;4.17;3.77;;;11.90;99.90;;;;;;5034846;28;20191;-53
2022/04/07 01:50:46;;;;;;;4.00;3.50;;;11.90;99.90;;;;;;5035114;28;20175;-50
2022/04/07 01:53:12;;;;;;;5.00;3.70;;;11.90;99.90;;;;;;5034669;28;20176;-54
2022/04/07 01:55:39;;;;;;;4.43;3.90;;;11.90;99.90;;;;;;5034942;28;20187;-52
2022/04/07 01:58:05;;;;;;;4.03;3.63;;;11.80;99.90;;;;;;5034748;28;20736;-53
2022/04/07 02:00:30;;;;;;;3.50;3.20;;;11.80;99.90;;;;;;5034859;28;20538;-52
2022/04/07 02:02:56;;;;;;;5.27;3.73;;;11.90;99.90;;;;;;5034393;28;20266;-53
2022/04/07 02:05:22;;;;;;;4.37;3.97;;;12.00;99.90;;;;;;5034763;28;20195;-48
2022/04/07 02:07:47;;;;;;;3.03;2.83;;;12.00;99.90;;;;;;5034076;28;20230;-49
2022/04/07 02:10:14;;;;;;;3.60;3.30;;;12.10;99.90;;;;;;5034503;28;20251;-53
2022/04/07 02:12:41;;;;;;;3.70;3.37;;;12.10;99.90;;;;;;5034240;28;20207;-50
2022/04/07 02:15:09;;;;;;;3.80;3.50;;;12.10;99.90;;;;;;5034501;28;20232;-52
2022/04/07 02:17:34;;;;;;;4.77;3.97;;;12.10;99.90;;;;;;5034582;28;20195;-50
2022/04/07 02:20:03;;;;;;;4.27;3.70;;;12.10;99.90;;;;;;5034501;28;20167;-50
2022/04/07 02:22:29;;;;;;;4.20;3.80;;;12.00;99.90;;;;;;5034057;28;20175;-54
2022/04/07 02:24:58;;;;;;;4.47;4.07;;;11.90;99.90;;;;;;5034548;28;20168;-50
2022/04/07 02:27:25;;;;;;;4.20;3.80;;;11.70;99.90;;;;;;5033614;28;20221;-50
2022/04/07 02:29:51;;;;;;;4.00;3.60;;;11.60;99.90;;;;;;5033093;28;20546;-52
2022/04/07 02:32:16;;;;;;;3.60;3.30;;;11.60;99.90;;;;;;5032750;28;20195;-49
2022/04/07 02:34:43;;;;;;;4.93;3.50;;;11.60;99.90;;;;;;5033489;28;20171;-53
2022/04/07 02:37:09;;;;;;;5.13;3.80;;;11.70;99.90;;;;;;5052074;28;20274;-49
2022/04/07 02:39:35;;;;;;;3.70;3.40;;;11.70;99.90;;;;;;5053849;28;20631;-48
2022/04/07 02:42:01;;;;;;;3.73;3.43;;;11.80;99.90;;;;;;5053639;28;20175;-53
2022/04/07 02:44:26;;;;;;;4.70;3.20;;;11.90;99.90;;;;;;5043616;28;20196;-53
2022/04/07 02:46:52;;;;;;;3.17;2.87;;;12.00;99.90;;;;;;5033762;28;20196;-52
2022/04/07 02:49:17;;;;;;;3.63;3.30;;;11.90;99.90;;;;;;5033729;28;20263;-51
2022/04/07 02:51:44;;;;;;;3.50;3.17;;;11.90;99.90;;;;;;5033926;28;20204;-49
2022/04/07 02:54:10;;;;;;;3.40;3.10;;;12.00;99.90;;;;;;5033446;28;20178;-54
2022/04/07 02:56:35;;;;;;;3.27;2.90;;;12.00;99.90;;;;;;5033820;28;20266;-53
2022/04/07 02:59:01;;;;;;;2.67;2.47;;;12.10;99.90;;;;;;5033600;28;20188;-48
2022/04/07 03:01:27;;;;;;;3.57;2.83;;;12.10;99.90;;;;;;5032822;28;20756;-50
2022/04/07 03:03:55;;;;;;;5.43;2.70;;;12.10;99.90;;;;;;5033077;28;20183;-48
2022/04/07 03:06:21;;;;;;;2.87;2.67;;;12.20;99.90;;;;;;5033690;28;20249;-50
2022/04/07 03:08:47;;;;;;;3.80;3.20;;;12.20;99.90;;;;;;5033506;28;20222;-54
2022/04/07 03:11:13;;;;;;;4.83;2.90;;;12.20;99.90;;;;;;5033486;28;20246;-49
2022/04/07 03:13:39;;;;;;;2.83;2.57;;;12.30;99.90;;;;;;5033302;28;20168;-52
2022/04/07 03:16:05;;;;;;;2.93;2.63;;;12.20;99.90;;;;;;5033459;28;20174;-50
2022/04/07 03:18:32;;;;;;;3.20;2.90;;;12.10;99.90;;;;;;5033295;28;20188;-53
2022/04/07 03:20:57;;;;;;;3.30;3.00;;;12.00;99.90;;;;;;5033220;28;20222;-49
2022/04/07 03:23:23;;;;;;;2.63;2.43;;;11.80;99.90;;;;;;5032987;28;20160;-53
2022/04/07 03:25:49;;;;;;;2.90;2.50;;;11.70;99.90;;;;;;5033256;28;20199;-53
2022/04/07 03:28:14;;;;;;;2.63;2.43;;;11.70;99.90;;;;;;5033274;28;20200;-51
2022/04/07 03:30:40;;;;;;;3.70;2.20;;;11.50;99.90;;;;;;5032956;28;20575;-50
2022/04/07 03:33:06;;;;;;;2.23;2.13;;;12.20;99.90;;;;;;5032827;28;20200;-49
2022/04/07 03:35:38;;;;;;;3.27;1.90;;;11.30;99.90;;;;;;5032160;28;20172;-54
2022/04/07 03:38:06;;;;;;;2.63;2.40;;;11.30;99.90;;;;;;5032989;28;20202;-50
2022/04/07 03:40:34;;;;;;;2.50;2.30;;;11.40;99.90;;;;;;5033038;28;20204;-50
2022/04/07 03:43:00;;;;;;;2.67;2.47;;;11.40;99.90;;;;;;5032607;28;20305;-53
2022/04/07 03:45:26;;;;;;;2.50;2.30;;;11.40;99.90;;;;;;5032106;28;20211;-49
2022/04/07 03:47:51;;;;;;;3.20;2.30;;;11.50;99.90;;;;;;5032720;28;20224;-54
2022/04/07 03:50:17;;;;;;;2.90;2.60;;;11.50;99.90;;;;;;5030240;28;20664;-51
2022/04/07 03:52:43;;;;;;;4.80;2.77;;;11.60;99.90;;;;;;5029918;28;20282;-53
2022/04/07 03:55:09;;;;;;;2.77;2.47;;;11.60;99.90;;;;;;5031580;28;20183;-54
2022/04/07 03:57:34;;;;;;;4.00;2.50;;;11.60;99.90;;;;;;5031965;28;20577;-52
2022/04/07 04:00:00;;;;;;;2.70;2.50;;;11.60;99.90;;;;;;5031799;28;20184;-52
2022/04/07 04:02:25;;;;;;;2.73;2.53;;;11.60;99.90;;;;;;5031866;28;20214;-52
2022/04/07 04:04:51;;;;;;;2.90;2.20;;;11.50;99.90;;;;;;5032478;28;20255;-51
2022/04/07 04:07:16;;;;;;;2.00;1.90;;;11.50;99.90;;;;;;5030177;28;20285;-54
2022/04/07 04:09:42;;;;;;;2.93;2.10;;;11.30;99.90;;;;;;5031661;28;20662;-51
2022/04/07 04:12:08;;;;;;;2.33;2.13;;;11.10;99.90;;;;;;5031088;28;20195;-52
2022/04/07 04:14:34;;;;;;;3.07;2.27;;;11.00;99.90;;;;;;5031987;28;20691;-53
2022/04/07 04:17:00;;;;;;;2.37;2.17;;;10.90;99.90;;;;;;5032526;28;20188;-51
2022/04/07 04:19:25;;;;;;;3.40;1.93;;;11.00;99.90;;;;;;5032448;28;20230;-51
2022/04/07 04:21:51;;;;;;;2.20;2.00;;;11.00;99.90;;;;;;5032413;28;20236;-57
2022/04/07 04:24:17;;;;;;;2.50;2.27;;;11.00;99.90;;;;;;5031235;28;20199;-53
2022/04/07 04:26:43;;;;;;;3.00;2.27;;;11.10;99.90;;;;;;5032451;28;20203;-52
2022/04/07 04:29:08;;;;;;;3.07;2.20;;;11.20;99.90;;;;;;5032078;28;20596;-50
2022/04/07 04:31:34;;;;;;;2.40;2.20;;;11.30;99.90;;;;;;5031971;28;20203;-52
2022/04/07 04:33:59;;;;;;;2.67;2.20;;;11.40;99.90;;;;;;5031749;28;20206;-52
2022/04/07 04:36:25;;;;;;;2.93;1.90;;;11.30;99.90;;;;;;5032042;28;20199;-56
2022/04/07 04:38:51;;;;;;;2.03;1.80;;;11.30;99.90;;;;;;5032046;28;20884;-50
2022/04/07 04:41:16;;;;;;;2.17;1.53;;;11.20;99.90;;;;;;5031824;28;20222;-54
2022/04/07 04:43:42;;;;;;;1.83;1.73;;;11.10;99.90;;;;;;5031663;28;20217;-52
2022/04/07 04:46:08;;;;;;;2.23;1.70;;;11.10;99.90;;;;;;5031856;28;20175;-53
2022/04/07 04:48:34;;;;;;;1.83;1.60;;;11.00;99.90;;;;;;5031913;28;20188;-55
2022/04/07 04:51:00;;;;;;;1.40;1.30;;;11.00;99.90;;;;;;5031706;28;20255;-49
2022/04/07 04:53:25;;;;;;;1.40;1.30;;;11.00;99.90;;;;;;5046956;28;20267;-52
2022/04/07 04:55:51;;;;;;;1.50;1.40;;;10.90;99.90;;;;;;5031623;28;20168;-49
2022/04/07 04:58:17;;;;;;;1.47;1.37;;;10.90;99.90;;;;;;5030316;28;20684;-54
2022/04/07 05:00:43;;;;;;;1.70;1.60;;;10.90;99.90;;;;;;5030943;28;20325;-52
2022/04/07 05:03:09;;;;;;;1.50;1.40;;;10.90;99.90;;;;;;5031276;28;20847;-52
2022/04/07 05:05:35;;;;;;;1.73;1.60;;;10.90;99.90;;;;;;5031819;28;20176;-53
2022/04/07 05:08:00;;;;;;;1.60;1.50;;;10.90;99.90;;;;;;5031642;28;20550;-54
2022/04/07 05:10:26;;;;;;;1.50;1.30;;;10.90;99.90;;;;;;5031687;28;20668;-50
2022/04/07 05:12:52;;;;;;;1.80;1.67;;;11.00;99.90;;;;;;5031149;28;20274;-51
2022/04/07 05:15:18;;;;;;;1.53;1.43;;;11.00;99.90;;;;;;5031564;28;20721;-51
2022/04/07 05:17:53;;;;;;;1.90;1.80;;;11.00;99.90;;;;;;5031498;28;20275;-48
2022/04/07 05:20:19;;;;;;;1.60;1.50;;;10.90;99.90;;;;;;5031640;28;20536;-51
2022/04/07 05:22:45;;;;;;;2.57;1.70;;;10.90;99.90;;;;;;5029912;28;20183;-49
2022/04/07 05:25:11;;;;;;;2.40;1.60;;;11.50;99.90;;;;;;5031581;28;20170;-52
2022/04/07 05:27:37;;;;;;;1.50;1.40;;;10.60;99.90;;;;;;5031375;28;20195;-53
2022/04/07 05:30:04;;;;;;;1.30;1.20;;;10.50;99.90;;;;;;5031329;28;20179;-52
2022/04/07 05:32:30;;;;;;;1.60;1.50;;;10.50;99.90;;;;;;5030899;28;20207;-51
2022/04/07 05:34:55;;;;;;;1.67;1.50;;;10.60;99.90;;;;;;5031470;28;20230;-51
2022/04/07 05:37:21;;;;;;;2.97;1.67;;;10.60;99.90;;;;;;5031066;28;20250;-54
2022/04/07 05:39:47;;;;;;;2.53;2.00;;;10.60;99.90;;;;;;5031298;28;20230;-52
2022/04/07 05:42:13;;;;;;;1.77;1.67;;;10.60;99.90;;;;;;5026318;28;20726;-49
2022/04/07 05:44:38;;;;;;;1.43;1.33;;;10.60;99.90;;;;;;5011110;28;20180;-51
2022/04/07 05:47:04;;;;;;;2.20;1.70;;;10.90;99.90;;;;;;5011602;28;20189;-52
2022/04/07 05:49:30;;;;;;;2.03;1.83;;;10.60;99.90;;;;;;5011461;28;20523;-55
2022/04/07 05:52:00;;;;;;;1.37;1.27;;;10.60;99.90;;;;;;5011329;28;20203;-53
2022/04/07 05:54:26;;;;;;;1.57;1.47;;;10.50;99.90;;;;;;5011362;28;20149;-48
2022/04/07 05:56:52;;;;;;;1.57;1.43;;;10.60;99.90;;;;;;5010355;28;20201;-51
2022/04/07 05:59:18;;;;;;;1.20;1.10;;;10.50;99.90;;;;;;5011651;28;20173;-48
2022/04/07 06:01:43;;;;;;;1.50;1.40;;;10.60;99.90;;;;;;5009855;28;20172;-47
2022/04/07 06:04:09;;;;;;;1.43;1.33;;;10.70;99.90;;;;;;5011325;28;20177;-50
2022/04/07 06:06:34;;;;;;;1.37;1.20;;;10.70;99.90;;;;;;5011909;28;20746;-51
2022/04/07 06:09:00;;;;;;;2.73;1.60;;;10.70;99.90;;;;;;5030328;28;20263;-52
2022/04/07 06:11:25;;;;;;;1.27;1.17;;;10.70;99.90;;;;;;5034612;28;20195;-48
2022/04/07 06:13:51;;;;;;;1.60;1.50;;;10.80;99.90;;;;;;5034066;28;20176;-48
2022/04/07 06:16:16;;;;;;;1.63;1.40;;;10.80;99.90;;;;;;5034558;28;20179;-46
2022/04/07 06:18:42;;;;;;;1.27;1.20;;;10.80;99.90;;;;;;5034254;28;20230;-51
2022/04/07 06:21:07;;;;;;;1.50;1.40;;;10.80;99.90;;;;;;5034571;28;20193;-47
2022/04/07 06:23:33;;;;;;;1.63;1.50;;;10.80;99.90;;;;;;5033708;28;20176;-47
2022/04/07 06:25:58;;;;;;;1.70;1.50;;;10.80;99.90;;;;;;5034257;28;20179;-49
2022/04/07 06:28:24;;;;;;;1.40;1.30;;;10.70;99.90;;;;;;5034176;28;20188;-49
2022/04/07 06:30:54;;;;;;;1.40;1.30;;;10.80;99.90;;;;;;5034106;28;20210;-46
2022/04/07 06:33:23;;;;;;;1.53;1.43;;;10.90;99.90;;;;;;5033856;28;20746;-50
2022/04/07 06:35:50;;;;;;;1.80;1.40;;;10.90;99.90;;;;;;5033864;28;20172;-50
2022/04/07 06:38:16;;;;;;;1.60;1.50;;;10.90;99.90;;;;;;5033294;28;20658;-47
2022/04/07 06:40:41;;;;;;;1.57;1.43;;;10.90;99.90;;;;;;5032121;28;20187;-52
2022/04/07 06:43:07;;;;;;;1.30;1.20;;;10.90;99.90;;;;;;5024052;28;20192;-54
2022/04/07 06:45:32;;;;;;;2.33;1.50;;;11.00;99.90;;;;;;5020311;28;20676;-47
2022/04/07 06:47:58;;;;;;;1.17;1.17;;;11.10;99.90;;;;;;5014035;28;20188;-48
2022/04/07 06:50:25;;;;;;;0.93;0.93;;;11.00;99.90;;;;;;5033094;28;20179;-51
2022/04/07 06:52:52;;;;;;;2.80;1.50;;;11.00;99.90;;;;;;5032934;28;20624;-47
2022/04/07 06:55:18;;;;;;;1.20;1.10;;;11.00;99.90;;;;;;5019833;28;20212;-50
2022/04/07 06:57:54;;;;;;;1.30;1.20;;;11.10;99.90;;;;;;5013453;28;20211;-47
2022/04/07 07:00:26;;;;;;;2.47;1.10;;;11.20;99.90;;;;;;5017584;28;20183;-52
2022/04/07 07:02:53;;;;;;;1.30;1.00;;;11.20;99.90;;;;;;5022771;28;20673;-51
2022/04/07 07:05:24;;;;;;;1.30;1.20;;;11.20;99.90;;;;;;5028307;28;20180;-49
2022/04/07 07:07:50;;;;;;;1.20;1.10;;;11.20;99.90;;;;;;5033327;28;20234;-47
2022/04/07 07:10:23;;;;;;;2.20;0.90;;;11.40;99.90;;;;;;5033106;28;20180;-53
2022/04/07 07:12:50;;;;;;;1.13;1.00;;;11.70;99.90;;;;;;5033127;28;20283;-51
2022/04/07 07:15:16;;;;;;;0.90;0.90;;;11.90;99.90;;;;;;5031754;28;20179;-46
2022/04/07 07:17:42;;;;;;;1.03;0.70;;;11.90;99.90;;;;;;5027104;28;20200;-49
2022/04/07 07:20:10;;;;;;;0.70;0.70;;;11.80;99.90;;;;;;5026953;28;20188;-53
2022/04/07 07:22:40;;;;;;;2.10;0.90;;;11.70;99.90;;;;;;5022704;28;20259;-49
2022/04/07 07:25:07;;;;;;;4.43;0.90;;;11.70;99.90;;;;;;5023828;28;20179;-46
2022/04/07 07:27:40;;;;;;;0.70;0.70;;;11.80;99.90;;;;;;5021097;28;20192;-47
2022/04/07 07:30:11;;;;;;;0.60;0.60;;;11.80;99.90;;;;;;5024300;28;20172;-46
2022/04/07 07:32:40;;;;;;;0.80;0.80;;;11.70;99.90;;;;;;5021774;28;20982;-52
2022/04/07 07:35:07;;;;;;;0.83;0.60;;;11.70;99.90;;;;;;5023363;28;20179;-47
2022/04/07 07:37:33;;;;;;;0.83;0.80;;;11.60;99.90;;;;;;5023104;28;20185;-53
2022/04/07 07:40:07;;;;;;;0.87;0.87;;;11.60;99.90;;;;;;5025889;28;20186;-52
2022/04/07 07:42:34;;;;;;;0.60;0.60;;;11.70;99.90;;;;;;5021784;28;20634;-50
2022/04/07 07:44:59;;;;;;;2.00;0.60;;;11.70;99.90;;;;;;5025729;28;20176;-50
2022/04/07 07:47:25;;;;;;;1.60;0.60;;;11.90;99.90;;;;;;5015911;28;20295;-49
2022/04/07 07:49:50;;;;;;;0.60;0.50;;;12.20;99.90;;;;;;5027126;28;20181;-47
2022/04/07 07:52:16;;;;;;;1.17;0.80;;;12.40;99.90;;;;;;5019580;28;20197;-50
2022/04/07 07:54:41;;;;;;;0.70;0.70;;;12.40;99.90;;;;;;5020702;28;20200;-50
2022/04/07 07:57:07;;;;;;;2.17;0.80;;;12.20;99.90;;;;;;5026645;28;20203;-50
2022/04/07 07:59:33;;;;;;;0.60;0.50;;;12.30;99.90;;;;;;5014975;28;20168;-50
2022/04/07 08:01:58;;;;;;;0.87;0.60;;;12.30;99.90;;;;;;5065735;23;20816;-52
2022/04/07 08:04:24;;;;;;;0.73;0.50;;;12.30;99.90;;;;;;5039794;28;20172;-51
2022/04/07 08:06:49;;;;;;;0.80;0.70;;;12.40;99.90;;;;;;5041071;28;20178;-52
2022/04/07 08:09:15;;;;;;;0.70;0.70;;;12.50;99.90;;;;;;5044988;28;20171;-50
2022/04/07 08:11:41;;;;;;;0.60;0.60;;;12.50;99.90;;;;;;5037996;28;20216;-55
2022/04/07 08:14:08;;;;;;;0.93;0.70;;;12.60;99.90;;;;;;5041035;28;20247;-55
2022/04/07 08:16:34;;;;;;;0.83;0.83;;;12.60;99.90;;;;;;5045257;28;20658;-50
2022/04/07 08:19:00;;;;;;;0.63;0.63;;;12.50;99.90;;;;;;5039155;28;20175;-50
2022/04/07 08:21:25;;;;;;;0.50;0.50;;;12.50;99.90;;;;;;5032179;28;20280;-54
2022/04/07 08:23:51;;;;;;;0.47;0.40;;;12.60;99.90;;;;;;5047719;28;20265;-50
2022/04/07 08:26:17;;;;;;;1.80;0.60;;;12.50;99.90;;;;;;5048493;28;20234;-49
2022/04/07 08:28:42;;;;;;;0.50;0.50;;;12.40;99.90;;;;;;5044553;28;20178;-52
2022/04/07 08:31:08;;;;;;;0.50;0.50;;;12.30;99.90;;;;;;5043782;28;20187;-56
2022/04/07 08:33:33;;;;;;;1.07;0.50;;;12.40;99.90;;;;;;5036381;28;20205;-53
2022/04/07 08:35:59;;;;;;;3.90;0.77;;;12.40;99.90;;;;;;5047901;28;20212;-51
2022/04/07 08:38:25;;;;;;;0.70;0.60;;;12.50;99.90;;;;;;5048398;28;20179;-50
2022/04/07 08:40:53;;;;;;;0.50;0.50;;;12.60;99.90;;;;;;5048546;28;20201;-50
2022/04/07 08:43:19;;;;;;;0.20;0.20;;;12.50;99.90;;;;;;5040492;28;20720;-50
2022/04/07 08:45:45;;;;;;;0.70;0.60;;;12.40;99.90;;;;;;5049087;28;20258;-51
2022/04/07 08:48:12;;;;;;;1.80;0.60;;;12.40;99.90;;;;;;5031307;28;20239;-51
2022/04/07 08:50:42;;;;;;;0.93;0.50;;;12.40;99.90;;;;;;5031463;28;20839;-54
2022/04/07 08:53:08;;;;;;;0.50;0.50;;;12.40;99.90;;;;;;5030515;28;20205;-51
2022/04/07 08:55:34;;;;;;;0.60;0.60;;;12.40;99.90;;;;;;5031771;28;20661;-54
2022/04/07 08:58:01;;;;;;;0.40;0.40;;;12.50;99.90;;;;;;5031726;28;20180;-52
2022/04/07 09:00:27;;;;;;;0.30;0.30;;;12.70;99.90;;;;;;5036163;28;20180;-50
2022/04/07 09:02:53;;;;;;;0.50;0.50;;;13.70;99.90;;;;;;5050298;28;20218;-55
2022/04/07 09:05:26;;;;;;;0.80;0.40;;;12.70;99.90;;;;;;5031673;28;20263;-51
2022/04/07 09:07:57;;;;;;;0.50;0.40;;;12.70;99.90;;;;;;5030954;28;20240;-54
2022/04/07 09:10:25;;;;;;;0.93;0.60;;;12.70;99.90;;;;;;5037671;28;20664;-53
2022/04/07 09:12:52;;;;;;;0.63;0.57;;;12.80;99.90;;;;;;5042052;28;20205;-50
2022/04/07 09:15:18;;;;;;;0.73;0.50;;;12.90;99.90;;;;;;5051538;28;20170;-53
2022/04/07 09:17:59;;;;;;;0.47;0.47;;;12.80;99.90;;;;;;5051410;28;20179;-52
2022/04/07 09:20:24;;;;;;;0.50;0.50;;;12.80;99.90;;;;;;5051349;28;20215;-52
2022/04/07 09:22:58;;;;;;;0.43;0.43;;;12.80;99.90;;;;;;5051080;28;20226;-52
2022/04/07 09:25:24;;;;;;;0.57;0.50;;;12.90;99.90;;;;;;5050664;28;20563;-50
2022/04/07 09:27:50;;;;;;;0.30;0.30;;;13.20;99.90;;;;;;5051395;28;20182;-53
2022/04/07 09:30:16;;;;;;;0.50;0.50;;;;;;;;;;5051075;28;20188;-52
2022/04/07 09:32:43;;;;;;;1.13;0.53;;;13.70;99.90;;;;;;5051049;28;20232;-54
2022/04/07 09:35:11;;;;;;;1.80;0.60;;;14.30;99.90;;;;;;5050906;28;20725;-52
2022/04/07 09:37:39;;;;;;;0.47;0.40;;;14.20;99.90;;;;;;5044725;28;20222;-52
2022/04/07 09:40:13;;;;;;;0.50;0.50;;;14.70;99.90;;;;;;5031250;28;20175;-53
2022/04/07 09:42:41;;;;;;;3.23;0.50;;;14.90;99.90;;;;;;5030856;28;20196;-51
2022/04/07 09:45:11;;;;;;;1.70;0.90;;;14.90;99.90;;;;;;5032589;28;20176;-52
2022/04/07 09:47:42;;;;;;;0.50;0.50;;;14.60;99.90;;;;;;5035131;28;20168;-51
2022/04/07 09:50:28;;;;;;;0.60;0.60;;;14.50;99.90;;;;;;5035172;28;20543;-53
2022/04/07 09:53:05;;;;;;;0.60;0.60;;;14.30;99.90;;;;;;5033718;28;20202;-52
2022/04/07 09:55:41;;;;;;;2.27;0.60;;;14.20;99.90;;;;;;5033112;28;20617;-50
2022/04/07 09:58:08;;;;;;;0.73;0.60;;;14.20;99.90;;;;;;5033017;28;20722;-54
2022/04/07 10:00:35;;;;;;;0.50;0.50;;;14.10;99.90;;;;;;5033214;28;20630;-55
2022/04/07 10:03:02;;;;;;;0.87;0.57;;;15.80;99.90;;;;;;5034146;28;20224;-50
2022/04/07 10:05:28;;;;;;;1.07;0.67;;;14.20;99.90;;;;;;5035022;28;20192;-50
2022/04/07 10:07:57;;;;;;;0.60;0.60;;;14.40;99.90;;;;;;5034472;28;20255;-52
2022/04/07 10:10:23;;;;;;;1.40;0.50;;;14.50;99.90;;;;;;5034757;28;20197;-53
2022/04/07 10:12:49;;;;;;;0.70;0.50;;;14.60;99.90;;;;;;5033894;28;20208;-52
2022/04/07 10:15:16;;;;;;;2.23;0.50;;;14.80;99.90;;;;;;5034728;28;20179;-53
2022/04/07 10:17:42;;;;;;;0.40;0.40;;;15.00;99.90;;;;;;5033912;28;20180;-51
2022/04/07 10:20:10;;;;;;;0.53;0.50;;;15.30;99.90;;;;;;5050109;28;20229;-49
2022/04/07 10:22:57;;;;;;;1.60;0.63;;;15.30;99.90;;;;;;5048812;28;20195;-52
2022/04/07 10:25:24;;;;;;;1.50;0.40;;;15.40;99.90;;;;;;5054294;28;20259;-50
2022/04/07 10:27:53;;;;;;;6.17;0.60;;;15.10;99.90;;;;;;5054367;28;20172;-50
2022/04/07 10:30:19;;;;;;;0.73;0.40;;;15.00;99.90;;;;;;5054187;28;20274;-50
2022/04/07 10:32:46;;;;;;;0.90;0.50;;;15.00;99.90;;;;;;5053790;28;20290;-53
2022/04/07 10:35:29;;;;;;;0.40;0.30;;;15.30;99.90;;;;;;5053998;28;20275;-51
2022/04/07 10:37:59;;;;;;;0.77;0.40;;;15.60;99.90;;;;;;5054362;28;20171;-51
2022/04/07 10:40:39;;;;;;;0.67;0.40;;;15.80;99.90;;;;;;5053867;28;20198;-50
2022/04/07 10:43:13;;;;;;;0.90;0.40;;;15.90;99.90;;;;;;5053641;28;20688;-50
2022/04/07 10:45:43;;;;;;;1.17;0.70;;;16.00;99.40;;;;;;5047072;28;20182;-53
2022/04/07 10:48:30;;;;;;;1.07;0.50;;;16.20;98.80;;;;;;5034086;28;20251;-52
2022/04/07 10:51:09;;;;;;;4.03;0.80;;;16.20;99.40;;;;;;5033917;28;20168;-50
2022/04/07 10:53:40;;;;;;;0.37;0.37;;;16.60;97.50;;;;;;5033745;28;20204;-51
2022/04/07 10:56:39;;;;;;;1.37;0.30;;;16.70;97.80;;;;;;5033526;28;20176;-49
2022/04/07 10:59:40;;;;;;;3.57;0.63;;;16.50;96.70;;;;;;5034064;28;20170;-50
2022/04/07 11:02:11;;;;;;;0.97;0.40;;;16.80;97.70;;;;;;4972195;28;20700;-53
2022/04/07 11:04:37;;;;;;;0.73;0.40;;;17.00;97.00;;;;;;4972422;28;20560;-50
2022/04/07 11:10:03;;;;;;;0.40;0.30;;;16.40;97.90;;;;;;4972340;28;20174;-51
2022/04/07 11:12:29;;;;;;;1.07;0.50;;;16.30;97.60;;;;;;4972095;28;20215;-53
2022/04/07 11:15:04;;;;;;;1.53;0.40;;;16.40;98.00;;;;;;4972367;28;20182;-53
2022/04/07 11:17:33;;;;;;;1.73;0.40;;;16.40;97.30;;;;;;4972628;28;20539;-51
2022/04/07 11:20:15;;;;;;;0.60;0.60;;;16.60;97.00;;;;;;4972201;28;20187;-54
2022/04/07 11:22:51;;;;;;;9.07;0.50;;;16.90;96.40;;;;;;4971980;28;20200;-50
2022/04/07 11:25:33;;;;;;;0.30;0.30;;;17.30;96.20;;;;;;4972138;28;20188;-51
2022/04/07 11:28:11;;;;;;;0.30;0.30;;;17.90;95.20;;;;;;4972365;28;20671;-51
2022/04/07 11:30:46;;;;;;;2.43;0.50;;;18.60;96.70;;;;;;4972082;28;20189;-54
2022/04/07 11:33:27;;;;;;;1.67;0.47;;;18.30;98.80;;;;;;4971772;28;20209;-50
2022/04/07 11:36:05;;;;;;;1.50;0.30;;;18.30;93.90;;;;;;4996337;28;20208;-50
2022/04/07 11:38:44;;;;;;;1.57;0.40;;;18.50;94.20;;;;;;5031825;28;20167;-54
2022/04/07 11:41:15;;;;;;;0.40;0.40;;;17.00;95.60;;;;;;5032877;28;20167;-51
2022/04/07 11:43:48;;;;;;;1.27;0.30;;;17.00;94.50;;;;;;5032396;28;20198;-50
2022/04/07 11:46:15;;;;;;;0.63;0.40;;;16.50;95.20;;;;;;5032349;28;20773;-51
2022/04/07 11:48:41;;;;;;;0.50;0.30;;;16.60;95.20;;;;;;5032894;28;20509;-52
2022/04/07 11:51:17;;;;;;;1.00;0.40;;;17.10;94.40;;;;;;5032173;28;20186;-49
2022/04/07 11:53:52;;;;;;;0.43;0.30;;;17.10;94.50;;;;;;5031796;28;20218;-51
2022/04/07 11:56:25;;;;;;;3.27;0.60;;;17.10;95.20;;;;;;5032121;28;20258;-52
2022/04/07 11:59:06;;;;;;;1.67;0.80;;;17.30;99.30;;;;;;5032052;28;20221;-50
2022/04/07 12:01:34;;;;;;;3.00;0.67;;;17.40;95.10;;;;;;5031845;28;20692;-53
2022/04/07 12:04:02;;;;;;;0.40;0.30;;;17.50;94.80;;;;;;5032180;28;20172;-56
2022/04/07 12:06:35;;;;;;;0.30;0.20;;;17.40;94.60;;;;;;5031757;28;20181;-52
2022/04/07 12:09:02;;;;;;;1.00;0.40;;;17.00;95.10;;;;;;5032343;28;20585;-54
2022/04/07 12:11:31;;;;;;;0.37;0.37;;;16.70;96.40;;;;;;5031335;28;20581;-53
2022/04/07 12:13:57;;;;;;;2.47;0.50;;;16.50;96.70;;;;;;5031133;28;20189;-56
2022/04/07 12:16:24;;;;;;;1.03;0.30;;;16.60;96.40;;;;;;5031004;28;20224;-51
2022/04/07 12:19:04;;;;;;;4.33;0.47;;;16.20;95.60;;;;;;5031315;28;20174;-51
2022/04/07 12:21:48;;;;;;;0.20;0.20;;;16.00;96.80;;;;;;5031674;28;20661;-52
2022/04/07 12:24:14;;;;;;;0.57;0.30;;;15.90;96.10;;;;;;5030924;28;20656;-55
2022/04/07 12:26:48;;;;;;;1.23;0.40;;;15.80;95.90;;;;;;5032273;28;20172;-52
2022/04/07 12:29:14;;;;;;;0.33;0.33;;;15.80;96.90;;;;;;5032328;28;20537;-50
2022/04/07 12:31:40;;;;;;;0.40;0.20;;;15.80;96.10;;;;;;5031752;28;20202;-52
2022/04/07 12:34:17;;;;;;;0.20;0.20;;;15.80;97.40;;;;;;5031892;28;20626;-55
2022/04/07 12:36:44;;;;;;;1.23;0.30;;;15.80;95.50;;;;;;5043176;28;20174;-50
2022/04/07 12:39:17;;;;;;;1.97;0.30;;;15.70;95.60;;;;;;5051183;28;20203;-52
2022/04/07 12:41:47;;;;;;;1.33;0.50;;;15.60;96.70;;;;;;5051730;28;20321;-50
2022/04/07 12:44:31;;;;;;;1.70;0.50;;;15.50;96.30;;;;;;5051879;28;20195;-52
2022/04/07 12:46:58;;;;;;;0.70;0.30;;;15.50;96.60;;;;;;5051823;28;20178;-52
2022/04/07 12:49:31;;;;;;;0.63;0.40;;;15.50;95.80;;;;;;5051937;28;20198;-50
2022/04/07 12:52:14;;;;;;;0.40;0.40;;;15.50;96.20;;;;;;5051609;28;20217;-52
2022/04/07 12:55:05;;;;;;;0.50;0.30;;;15.40;95.80;;;;;;5051861;28;20190;-50